sensor_id;sensor_type;location;lat;lon;timestamp;temperature;humidity
5834;DHT22;2943;48.012;10.968;2022-10-31T00:02:03;11.50;99.90
5834;DHT22;2943;48.012;10.968;2022-10-31T00:04:30;11.50;99.90
5834;DHT22;2943;48.012;10.968;2022-10-31T00:06:57;11.40;99.90
5834;DHT22;2943;48.012;10.968;2022-10-31T00:09:24;11.40;99.90
5834;DHT22;2943;48.012;10.968;2022-10-31T00:11:51;11.40;99.90
5834;DHT22;2943;48.012;10.968;2022-10-31T00:14:18;11.40;99.90
5834;DHT22;2943;48.012;10.968;2022-10-31T00:16:45;11.40;99.90
5834;DHT22;2943;48.012;10.968;2022-10-31T00:19:13;11.40;99.90
5834;DHT22;2943;48.012;10.968;2022-10-31T00:21:40;11.40;99.90
5834;DHT22;2943;48.012;10.968;2022-10-31T00:24:07;11.30;99.90
5834;DHT22;2943;48.012;10.968;2022-10-31T00:26:34;11.30;99.90
5834;DHT22;2943;48.012;10.968;2022-10-31T00:29:02;11.30;99.90
5834;DHT22;2943;48.012;10.968;2022-10-31T00:31:29;11.30;99.90
5834;DHT22;2943;48.012;10.968;2022-10-31T00:33:56;11.30;99.90
5834;DHT22;2943;48.012;10.968;2022-10-31T00:36:25;11.30;99.90
5834;DHT22;2943;48.012;10.968;2022-10-31T00:38:52;11.20;99.90
5834;DHT22;2943;48.012;10.968;2022-10-31T00:41:18;11.20;99.90
5834;DHT22;2943;48.012;10.968;2022-10-31T00:43:46;11.20;99.90
5834;DHT22;2943;48.012;10.968;2022-10-31T00:46:13;11.20;99.90
5834;DHT22;2943;48.012;10.968;2022-10-31T00:48:40;11.20;99.90
5834;DHT22;2943;48.012;10.968;2022-10-31T00:51:07;11.20;99.90
5834;DHT22;2943;48.012;10.968;2022-10-31T00:53:36;11.20;99.90
5834;DHT22;2943;48.012;10.968;2022-10-31T00:56:04;11.20;99.90
5834;DHT22;2943;48.012;10.968;2022-10-31T00:58:31;11.20;99.90
5834;DHT22;2943;48.012;10.968;2022-10-31T01:00:58;11.20;99.90
5834;DHT22;2943;48.012;10.968;2022-10-31T01:03:27;11.20;99.90
5834;DHT22;2943;48.012;10.968;2022-10-31T01:05:58;11.10;99.90
5834;DHT22;2943;48.012;10.968;2022-10-31T01:08:25;11.10;99.90
5834;DHT22;2943;48.012;10.968;2022-10-31T01:11:02;11.00;99.90
5834;DHT22;2943;48.012;10.968;2022-10-31T01:13:29;10.90;99.90
5834;DHT22;2943;48.012;10.968;2022-10-31T01:15:58;10.90;99.90
5834;DHT22;2943;48.012;10.968;2022-10-31T01:18:25;10.90;99.90
5834;DHT22;2943;48.012;10.968;2022-10-31T01:20:59;10.90;99.90
5834;DHT22;2943;48.012;10.968;2022-10-31T01:23:27;10.80;99.90
5834;DHT22;2943;48.012;10.968;2022-10-31T01:26:05;10.80;99.90
5834;DHT22;2943;48.012;10.968;2022-10-31T01:28:33;10.80;99.90
5834;DHT22;2943;48.012;10.968;2022-10-31T01:31:01;10.80;99.90
5834;DHT22;2943;48.012;10.968;2022-10-31T01:33:28;10.80;99.90
5834;DHT22;2943;48.012;10.968;2022-10-31T01:35:55;10.80;99.90
5834;DHT22;2943;48.012;10.968;2022-10-31T01:38:22;10.80;99.90
5834;DHT22;2943;48.012;10.968;2022-10-31T01:40:49;10.80;99.90
5834;DHT22;2943;48.012;10.968;2022-10-31T01:43:17;10.80;99.90
5834;DHT22;2943;48.012;10.968;2022-10-31T01:45:47;10.80;99.90
5834;DHT22;2943;48.012;10.968;2022-10-31T01:48:19;10.70;99.90
5834;DHT22;2943;48.012;10.968;2022-10-31T01:50:48;10.70;99.90
5834;DHT22;2943;48.012;10.968;2022-10-31T01:53:17;10.70;99.90
5834;DHT22;2943;48.012;10.968;2022-10-31T01:55:45;10.60;99.90
5834;DHT22;2943;48.012;10.968;2022-10-31T01:58:18;10.70;99.90
5834;DHT22;2943;48.012;10.968;2022-10-31T02:00:49;10.70;99.90
5834;DHT22;2943;48.012;10.968;2022-10-31T02:03:18;10.60;99.90
5834;DHT22;2943;48.012;10.968;2022-10-31T02:05:47;10.60;99.90
5834;DHT22;2943;48.012;10.968;2022-10-31T02:08:20;10.60;99.90
5834;DHT22;2943;48.012;10.968;2022-10-31T02:10:48;10.50;99.90
5834;DHT22;2943;48.012;10.968;2022-10-31T02:13:17;10.50;99.90
5834;DHT22;2943;48.012;10.968;2022-10-31T02:15:47;10.50;99.90
5834;DHT22;2943;48.012;10.968;2022-10-31T02:18:16;10.40;99.90
5834;DHT22;2943;48.012;10.968;2022-10-31T02:20:50;10.40;99.90
5834;DHT22;2943;48.012;10.968;2022-10-31T02:23:50;10.40;99.90
5834;DHT22;2943;48.012;10.968;2022-10-31T02:29:46;10.40;99.90
5834;DHT22;2943;48.012;10.968;2022-10-31T02:32:26;10.40;99.90
5834;DHT22;2943;48.012;10.968;2022-10-31T02:34:58;10.40;99.90
5834;DHT22;2943;48.012;10.968;2022-10-31T02:37:32;10.40;99.90
5834;DHT22;2943;48.012;10.968;2022-10-31T02:40:08;10.30;99.90
5834;DHT22;2943;48.012;10.968;2022-10-31T02:42:43;10.30;99.90
5834;DHT22;2943;48.012;10.968;2022-10-31T02:45:21;10.30;99.90
5834;DHT22;2943;48.012;10.968;2022-10-31T02:47:54;10.30;99.90
5834;DHT22;2943;48.012;10.968;2022-10-31T02:50:26;10.30;99.90
5834;DHT22;2943;48.012;10.968;2022-10-31T02:52:54;10.30;99.90
5834;DHT22;2943;48.012;10.968;2022-10-31T02:55:50;10.30;99.90
5834;DHT22;2943;48.012;10.968;2022-10-31T02:58:21;10.30;99.90
5834;DHT22;2943;48.012;10.968;2022-10-31T03:01:01;10.20;99.90
5834;DHT22;2943;48.012;10.968;2022-10-31T03:03:36;10.20;99.90
5834;DHT22;2943;48.012;10.968;2022-10-31T03:06:12;10.20;99.90
5834;DHT22;2943;48.012;10.968;2022-10-31T03:08:45;10.10;99.90
5834;DHT22;2943;48.012;10.968;2022-10-31T03:11:20;10.10;99.90
5834;DHT22;2943;48.012;10.968;2022-10-31T03:13:51;10.10;99.90
5834;DHT22;2943;48.012;10.968;2022-10-31T03:16:28;10.10;99.90
5834;DHT22;2943;48.012;10.968;2022-10-31T03:19:00;10.10;99.90
5834;DHT22;2943;48.012;10.968;2022-10-31T03:21:33;10.00;99.90
5834;DHT22;2943;48.012;10.968;2022-10-31T03:24:05;10.00;99.90
5834;DHT22;2943;48.012;10.968;2022-10-31T03:26:34;10.00;99.90
5834;DHT22;2943;48.012;10.968;2022-10-31T03:29:04;10.00;99.90
5834;DHT22;2943;48.012;10.968;2022-10-31T03:31:35;10.00;99.90
5834;DHT22;2943;48.012;10.968;2022-10-31T03:34:06;10.00;99.90
5834;DHT22;2943;48.012;10.968;2022-10-31T03:36:35;10.00;99.90
5834;DHT22;2943;48.012;10.968;2022-10-31T03:39:07;10.00;99.90
5834;DHT22;2943;48.012;10.968;2022-10-31T03:41:47;10.00;99.90
5834;DHT22;2943;48.012;10.968;2022-10-31T03:44:19;10.00;99.90
5834;DHT22;2943;48.012;10.968;2022-10-31T03:46:47;9.90;99.90
5834;DHT22;2943;48.012;10.968;2022-10-31T03:49:16;9.90;99.90
5834;DHT22;2943;48.012;10.968;2022-10-31T03:51:46;9.90;99.90
5834;DHT22;2943;48.012;10.968;2022-10-31T03:54:22;9.80;99.90
5834;DHT22;2943;48.012;10.968;2022-10-31T03:56:53;9.80;99.90
5834;DHT22;2943;48.012;10.968;2022-10-31T03:59:24;9.80;99.90
5834;DHT22;2943;48.012;10.968;2022-10-31T04:01:57;9.80;99.90
5834;DHT22;2943;48.012;10.968;2022-10-31T04:04:26;9.80;99.90
5834;DHT22;2943;48.012;10.968;2022-10-31T04:06:55;9.80;99.90
5834;DHT22;2943;48.012;10.968;2022-10-31T04:09:24;9.80;99.90
5834;DHT22;2943;48.012;10.968;2022-10-31T04:11:54;9.80;99.90
5834;DHT22;2943;48.012;10.968;2022-10-31T04:14:25;9.80;99.90
5834;DHT22;2943;48.012;10.968;2022-10-31T04:16:52;9.70;99.90
5834;DHT22;2943;48.012;10.968;2022-10-31T04:19:19;9.70;99.90
5834;DHT22;2943;48.012;10.968;2022-10-31T04:21:47;9.70;99.90
5834;DHT22;2943;48.012;10.968;2022-10-31T04:24:14;9.60;99.90
5834;DHT22;2943;48.012;10.968;2022-10-31T04:26:41;9.60;99.90
5834;DHT22;2943;48.012;10.968;2022-10-31T04:29:07;9.60;99.90
5834;DHT22;2943;48.012;10.968;2022-10-31T04:31:34;9.60;99.90
5834;DHT22;2943;48.012;10.968;2022-10-31T04:34:01;9.60;99.90
5834;DHT22;2943;48.012;10.968;2022-10-31T04:36:28;9.60;99.90
5834;DHT22;2943;48.012;10.968;2022-10-31T04:38:56;9.60;99.90
5834;DHT22;2943;48.012;10.968;2022-10-31T04:41:23;9.60;99.90
5834;DHT22;2943;48.012;10.968;2022-10-31T04:43:51;9.60;99.90
5834;DHT22;2943;48.012;10.968;2022-10-31T04:46:18;9.60;99.90
5834;DHT22;2943;48.012;10.968;2022-10-31T04:48:44;9.60;99.90
5834;DHT22;2943;48.012;10.968;2022-10-31T04:51:11;9.60;99.90
5834;DHT22;2943;48.012;10.968;2022-10-31T04:53:38;9.60;99.90
5834;DHT22;2943;48.012;10.968;2022-10-31T04:56:07;9.60;99.90
5834;DHT22;2943;48.012;10.968;2022-10-31T04:58:34;9.60;99.90
5834;DHT22;2943;48.012;10.968;2022-10-31T05:01:00;9.50;99.90
5834;DHT22;2943;48.012;10.968;2022-10-31T05:03:27;9.40;99.90
5834;DHT22;2943;48.012;10.968;2022-10-31T05:05:54;9.40;99.90
5834;DHT22;2943;48.012;10.968;2022-10-31T05:08:21;9.40;99.90
5834;DHT22;2943;48.012;10.968;2022-10-31T05:10:48;9.40;99.90
5834;DHT22;2943;48.012;10.968;2022-10-31T05:13:17;9.40;99.90
5834;DHT22;2943;48.012;10.968;2022-10-31T05:15:43;9.40;99.90
5834;DHT22;2943;48.012;10.968;2022-10-31T05:18:11;9.40;99.90
5834;DHT22;2943;48.012;10.968;2022-10-31T05:20:37;9.40;99.90
5834;DHT22;2943;48.012;10.968;2022-10-31T05:23:04;9.40;99.90
5834;DHT22;2943;48.012;10.968;2022-10-31T05:25:31;9.30;99.90
5834;DHT22;2943;48.012;10.968;2022-10-31T05:27:58;9.30;99.90
5834;DHT22;2943;48.012;10.968;2022-10-31T05:30:29;9.30;99.90
5834;DHT22;2943;48.012;10.968;2022-10-31T05:32:56;9.30;99.90
5834;DHT22;2943;48.012;10.968;2022-10-31T05:35:25;9.30;99.90
5834;DHT22;2943;48.012;10.968;2022-10-31T05:37:53;9.30;99.90
5834;DHT22;2943;48.012;10.968;2022-10-31T05:40:20;9.30;99.90
5834;DHT22;2943;48.012;10.968;2022-10-31T05:42:50;9.20;99.90
5834;DHT22;2943;48.012;10.968;2022-10-31T05:45:19;9.20;99.90
5834;DHT22;2943;48.012;10.968;2022-10-31T05:47:52;9.20;99.90
5834;DHT22;2943;48.012;10.968;2022-10-31T05:50:19;9.20;99.90
5834;DHT22;2943;48.012;10.968;2022-10-31T05:52:46;9.20;99.90
5834;DHT22;2943;48.012;10.968;2022-10-31T05:55:13;9.20;99.90
5834;DHT22;2943;48.012;10.968;2022-10-31T05:57:40;9.20;99.90
5834;DHT22;2943;48.012;10.968;2022-10-31T06:00:08;9.20;99.90
5834;DHT22;2943;48.012;10.968;2022-10-31T06:02:35;9.10;99.90
5834;DHT22;2943;48.012;10.968;2022-10-31T06:05:04;9.10;99.90
5834;DHT22;2943;48.012;10.968;2022-10-31T06:07:34;9.10;99.90
5834;DHT22;2943;48.012;10.968;2022-10-31T06:10:02;9.10;99.90
5834;DHT22;2943;48.012;10.968;2022-10-31T06:12:30;9.10;99.90
5834;DHT22;2943;48.012;10.968;2022-10-31T06:14:57;9.10;99.90
5834;DHT22;2943;48.012;10.968;2022-10-31T06:17:24;9.10;99.90
5834;DHT22;2943;48.012;10.968;2022-10-31T06:19:51;9.10;99.90
5834;DHT22;2943;48.012;10.968;2022-10-31T06:22:19;9.10;99.90
5834;DHT22;2943;48.012;10.968;2022-10-31T06:24:46;9.10;99.90
5834;DHT22;2943;48.012;10.968;2022-10-31T06:27:13;9.10;99.90
5834;DHT22;2943;48.012;10.968;2022-10-31T06:29:40;9.10;99.90
5834;DHT22;2943;48.012;10.968;2022-10-31T06:32:09;9.10;99.90
5834;DHT22;2943;48.012;10.968;2022-10-31T06:34:37;9.10;99.90
5834;DHT22;2943;48.012;10.968;2022-10-31T06:37:05;9.10;99.90
5834;DHT22;2943;48.012;10.968;2022-10-31T06:39:34;9.10;99.90
5834;DHT22;2943;48.012;10.968;2022-10-31T06:42:01;9.10;99.90
5834;DHT22;2943;48.012;10.968;2022-10-31T06:44:28;9.10;99.90
5834;DHT22;2943;48.012;10.968;2022-10-31T06:46:56;9.10;99.90
5834;DHT22;2943;48.012;10.968;2022-10-31T06:49:23;9.10;99.90
5834;DHT22;2943;48.012;10.968;2022-10-31T06:51:50;9.10;99.90
5834;DHT22;2943;48.012;10.968;2022-10-31T06:54:18;9.10;99.90
5834;DHT22;2943;48.012;10.968;2022-10-31T06:56:47;9.10;99.90
5834;DHT22;2943;48.012;10.968;2022-10-31T06:59:14;9.20;99.90
5834;DHT22;2943;48.012;10.968;2022-10-31T07:01:42;9.20;99.90
5834;DHT22;2943;48.012;10.968;2022-10-31T07:04:09;9.20;99.90
5834;DHT22;2943;48.012;10.968;2022-10-31T07:06:36;9.20;99.90
5834;DHT22;2943;48.012;10.968;2022-10-31T07:09:03;9.30;99.90
5834;DHT22;2943;48.012;10.968;2022-10-31T07:11:30;9.30;99.90
5834;DHT22;2943;48.012;10.968;2022-10-31T07:13:58;9.40;99.90
5834;DHT22;2943;48.012;10.968;2022-10-31T07:16:25;9.40;99.90
5834;DHT22;2943;48.012;10.968;2022-10-31T07:18:52;9.40;99.90
5834;DHT22;2943;48.012;10.968;2022-10-31T07:21:19;9.40;99.90
5834;DHT22;2943;48.012;10.968;2022-10-31T07:23:47;9.40;99.90
5834;DHT22;2943;48.012;10.968;2022-10-31T07:26:15;9.50;99.90
5834;DHT22;2943;48.012;10.968;2022-10-31T07:28:42;9.50;99.90
5834;DHT22;2943;48.012;10.968;2022-10-31T07:31:10;9.60;99.90
5834;DHT22;2943;48.012;10.968;2022-10-31T07:33:36;9.60;99.90
5834;DHT22;2943;48.012;10.968;2022-10-31T07:36:04;9.60;99.90
5834;DHT22;2943;48.012;10.968;2022-10-31T07:38:31;9.70;99.90
5834;DHT22;2943;48.012;10.968;2022-10-31T07:40:58;9.70;99.90
5834;DHT22;2943;48.012;10.968;2022-10-31T07:43:24;9.80;99.90
5834;DHT22;2943;48.012;10.968;2022-10-31T07:45:52;9.80;99.90
5834;DHT22;2943;48.012;10.968;2022-10-31T07:48:20;9.90;99.90
5834;DHT22;2943;48.012;10.968;2022-10-31T07:50:47;10.00;99.90
5834;DHT22;2943;48.012;10.968;2022-10-31T07:53:15;10.00;99.90
5834;DHT22;2943;48.012;10.968;2022-10-31T07:55:42;10.10;99.90
5834;DHT22;2943;48.012;10.968;2022-10-31T07:58:11;10.20;99.90
5834;DHT22;2943;48.012;10.968;2022-10-31T08:00:39;10.20;99.90
5834;DHT22;2943;48.012;10.968;2022-10-31T08:03:07;10.30;99.90
5834;DHT22;2943;48.012;10.968;2022-10-31T08:05:36;10.30;99.90
5834;DHT22;2943;48.012;10.968;2022-10-31T08:08:04;10.40;99.90
5834;DHT22;2943;48.012;10.968;2022-10-31T08:10:32;10.50;99.90
5834;DHT22;2943;48.012;10.968;2022-10-31T08:13:00;10.50;99.90
5834;DHT22;2943;48.012;10.968;2022-10-31T08:15:27;10.60;99.90
5834;DHT22;2943;48.012;10.968;2022-10-31T08:17:55;10.80;99.90
5834;DHT22;2943;48.012;10.968;2022-10-31T08:20:22;11.00;99.90
5834;DHT22;2943;48.012;10.968;2022-10-31T08:22:57;11.10;99.90
5834;DHT22;2943;48.012;10.968;2022-10-31T08:25:26;11.20;99.90
5834;DHT22;2943;48.012;10.968;2022-10-31T08:27:54;11.40;99.90
5834;DHT22;2943;48.012;10.968;2022-10-31T08:30:22;11.50;99.90
5834;DHT22;2943;48.012;10.968;2022-10-31T08:32:58;11.70;99.90
5834;DHT22;2943;48.012;10.968;2022-10-31T08:35:24;11.80;99.90
5834;DHT22;2943;48.012;10.968;2022-10-31T08:37:52;11.90;99.90
5834;DHT22;2943;48.012;10.968;2022-10-31T08:40:21;12.00;99.90
5834;DHT22;2943;48.012;10.968;2022-10-31T08:42:55;12.10;99.90
5834;DHT22;2943;48.012;10.968;2022-10-31T08:45:23;12.20;99.90
5834;DHT22;2943;48.012;10.968;2022-10-31T08:47:50;12.40;99.90
5834;DHT22;2943;48.012;10.968;2022-10-31T08:50:17;12.50;99.90
5834;DHT22;2943;48.012;10.968;2022-10-31T08:52:44;12.60;99.90
5834;DHT22;2943;48.012;10.968;2022-10-31T08:55:10;12.60;99.90
5834;DHT22;2943;48.012;10.968;2022-10-31T08:57:39;12.70;99.90
5834;DHT22;2943;48.012;10.968;2022-10-31T09:00:07;12.80;99.90
5834;DHT22;2943;48.012;10.968;2022-10-31T09:02:34;12.90;99.90
5834;DHT22;2943;48.012;10.968;2022-10-31T09:05:02;13.00;99.90
5834;DHT22;2943;48.012;10.968;2022-10-31T09:07:29;13.10;99.90
5834;DHT22;2943;48.012;10.968;2022-10-31T09:09:56;13.20;99.90
5834;DHT22;2943;48.012;10.968;2022-10-31T09:12:23;13.20;99.90
5834;DHT22;2943;48.012;10.968;2022-10-31T09:14:51;13.30;99.90
5834;DHT22;2943;48.012;10.968;2022-10-31T09:17:18;13.40;99.90
5834;DHT22;2943;48.012;10.968;2022-10-31T09:19:45;13.50;99.90
5834;DHT22;2943;48.012;10.968;2022-10-31T09:22:12;13.60;99.90
5834;DHT22;2943;48.012;10.968;2022-10-31T09:24:39;13.60;99.90
5834;DHT22;2943;48.012;10.968;2022-10-31T09:27:05;13.70;99.90
5834;DHT22;2943;48.012;10.968;2022-10-31T09:29:33;13.70;99.90
5834;DHT22;2943;48.012;10.968;2022-10-31T09:32:02;13.80;99.90
5834;DHT22;2943;48.012;10.968;2022-10-31T09:34:28;13.80;99.90
5834;DHT22;2943;48.012;10.968;2022-10-31T09:36:55;13.80;99.90
5834;DHT22;2943;48.012;10.968;2022-10-31T09:39:22;13.90;99.90
5834;DHT22;2943;48.012;10.968;2022-10-31T09:42:09;14.00;99.90
5834;DHT22;2943;48.012;10.968;2022-10-31T09:44:50;14.00;99.90
5834;DHT22;2943;48.012;10.968;2022-10-31T09:47:26;14.20;99.90
5834;DHT22;2943;48.012;10.968;2022-10-31T09:50:02;14.20;99.90
5834;DHT22;2943;48.012;10.968;2022-10-31T09:52:34;14.30;99.90
5834;DHT22;2943;48.012;10.968;2022-10-31T09:55:05;14.40;99.90
5834;DHT22;2943;48.012;10.968;2022-10-31T09:57:34;14.50;99.90
5834;DHT22;2943;48.012;10.968;2022-10-31T10:00:04;14.50;99.90
5834;DHT22;2943;48.012;10.968;2022-10-31T10:02:36;14.60;99.90
5834;DHT22;2943;48.012;10.968;2022-10-31T10:05:05;14.70;99.90
5834;DHT22;2943;48.012;10.968;2022-10-31T10:07:40;14.80;99.90
5834;DHT22;2943;48.012;10.968;2022-10-31T10:10:15;14.90;99.90
5834;DHT22;2943;48.012;10.968;2022-10-31T10:13:11;14.90;99.90
5834;DHT22;2943;48.012;10.968;2022-10-31T10:15:58;15.00;99.90
5834;DHT22;2943;48.012;10.968;2022-10-31T10:18:38;15.10;99.90
5834;DHT22;2943;48.012;10.968;2022-10-31T10:21:17;15.10;99.90
5834;DHT22;2943;48.012;10.968;2022-10-31T10:23:56;15.20;99.90
5834;DHT22;2943;48.012;10.968;2022-10-31T10:26:30;15.30;99.90
5834;DHT22;2943;48.012;10.968;2022-10-31T10:29:10;15.40;99.90
5834;DHT22;2943;48.012;10.968;2022-10-31T10:31:44;15.50;99.90
5834;DHT22;2943;48.012;10.968;2022-10-31T10:34:19;15.60;99.90
5834;DHT22;2943;48.012;10.968;2022-10-31T10:36:51;15.70;99.90
5834;DHT22;2943;48.012;10.968;2022-10-31T10:39:22;15.80;99.90
5834;DHT22;2943;48.012;10.968;2022-10-31T10:41:51;16.00;99.90
5834;DHT22;2943;48.012;10.968;2022-10-31T10:44:37;16.10;99.90
5834;DHT22;2943;48.012;10.968;2022-10-31T10:47:22;16.20;99.90
5834;DHT22;2943;48.012;10.968;2022-10-31T10:50:12;16.30;99.90
5834;DHT22;2943;48.012;10.968;2022-10-31T10:52:50;16.40;99.90
5834;DHT22;2943;48.012;10.968;2022-10-31T10:55:28;16.50;99.90
5834;DHT22;2943;48.012;10.968;2022-10-31T10:58:02;16.50;99.90
5834;DHT22;2943;48.012;10.968;2022-10-31T11:00:31;16.60;99.90
5834;DHT22;2943;48.012;10.968;2022-10-31T11:02:59;16.70;99.90
5834;DHT22;2943;48.012;10.968;2022-10-31T11:05:32;16.70;99.90
5834;DHT22;2943;48.012;10.968;2022-10-31T11:08:00;16.80;99.90
5834;DHT22;2943;48.012;10.968;2022-10-31T11:10:27;16.80;99.90
5834;DHT22;2943;48.012;10.968;2022-10-31T11:13:06;16.80;99.90
5834;DHT22;2943;48.012;10.968;2022-10-31T11:15:37;16.90;99.90
5834;DHT22;2943;48.012;10.968;2022-10-31T11:18:17;16.90;99.90
5834;DHT22;2943;48.012;10.968;2022-10-31T11:20:52;17.00;99.90
5834;DHT22;2943;48.012;10.968;2022-10-31T11:23:20;17.00;99.90
5834;DHT22;2943;48.012;10.968;2022-10-31T11:25:54;17.10;99.90
5834;DHT22;2943;48.012;10.968;2022-10-31T11:28:21;17.20;99.90
5834;DHT22;2943;48.012;10.968;2022-10-31T11:30:51;17.20;99.90
5834;DHT22;2943;48.012;10.968;2022-10-31T11:33:21;17.30;99.90
5834;DHT22;2943;48.012;10.968;2022-10-31T11:35:53;17.30;99.90
5834;DHT22;2943;48.012;10.968;2022-10-31T11:38:22;17.20;99.90
5834;DHT22;2943;48.012;10.968;2022-10-31T11:41:05;17.20;99.90
5834;DHT22;2943;48.012;10.968;2022-10-31T11:43:34;17.30;99.90
5834;DHT22;2943;48.012;10.968;2022-10-31T11:46:09;17.30;99.90
5834;DHT22;2943;48.012;10.968;2022-10-31T11:48:36;17.30;99.90
5834;DHT22;2943;48.012;10.968;2022-10-31T11:51:04;17.40;99.90
5834;DHT22;2943;48.012;10.968;2022-10-31T11:53:33;17.50;99.90
5834;DHT22;2943;48.012;10.968;2022-10-31T11:56:09;17.50;99.90
5834;DHT22;2943;48.012;10.968;2022-10-31T11:58:36;17.60;99.90
5834;DHT22;2943;48.012;10.968;2022-10-31T12:01:03;17.70;99.90
5834;DHT22;2943;48.012;10.968;2022-10-31T12:03:38;17.80;99.90
5834;DHT22;2943;48.012;10.968;2022-10-31T12:06:13;17.90;99.90
5834;DHT22;2943;48.012;10.968;2022-10-31T12:08:43;17.90;99.90
5834;DHT22;2943;48.012;10.968;2022-10-31T12:11:23;17.90;99.90
5834;DHT22;2943;48.012;10.968;2022-10-31T12:14:03;17.90;99.90
5834;DHT22;2943;48.012;10.968;2022-10-31T12:16:38;18.00;99.90
5834;DHT22;2943;48.012;10.968;2022-10-31T12:19:15;18.00;99.90
5834;DHT22;2943;48.012;10.968;2022-10-31T12:21:54;18.00;99.90
5834;DHT22;2943;48.012;10.968;2022-10-31T12:24:36;18.00;99.90
5834;DHT22;2943;48.012;10.968;2022-10-31T12:27:14;18.00;99.90
5834;DHT22;2943;48.012;10.968;2022-10-31T12:30:12;18.00;99.90
5834;DHT22;2943;48.012;10.968;2022-10-31T12:32:48;18.00;99.90
5834;DHT22;2943;48.012;10.968;2022-10-31T12:35:28;18.00;99.90
5834;DHT22;2943;48.012;10.968;2022-10-31T12:38:12;18.00;99.90
5834;DHT22;2943;48.012;10.968;2022-10-31T12:40:55;18.10;99.90
5834;DHT22;2943;48.012;10.968;2022-10-31T12:43:37;18.10;99.90
5834;DHT22;2943;48.012;10.968;2022-10-31T12:46:09;18.10;99.90
5834;DHT22;2943;48.012;10.968;2022-10-31T12:48:57;18.10;99.90
5834;DHT22;2943;48.012;10.968;2022-10-31T12:51:33;18.10;99.90
5834;DHT22;2943;48.012;10.968;2022-10-31T12:54:15;18.10;99.90
5834;DHT22;2943;48.012;10.968;2022-10-31T12:56:52;18.10;99.90
5834;DHT22;2943;48.012;10.968;2022-10-31T12:59:28;18.10;99.90
5834;DHT22;2943;48.012;10.968;2022-10-31T13:02:00;18.10;99.90
5834;DHT22;2943;48.012;10.968;2022-10-31T13:04:37;18.10;99.90
5834;DHT22;2943;48.012;10.968;2022-10-31T13:07:12;18.10;99.90
5834;DHT22;2943;48.012;10.968;2022-10-31T13:09:47;18.20;99.90
5834;DHT22;2943;48.012;10.968;2022-10-31T13:12:17;18.10;99.90
5834;DHT22;2943;48.012;10.968;2022-10-31T13:14:48;18.10;99.90
5834;DHT22;2943;48.012;10.968;2022-10-31T13:17:22;18.10;99.90
5834;DHT22;2943;48.012;10.968;2022-10-31T13:19:53;18.10;99.90
5834;DHT22;2943;48.012;10.968;2022-10-31T13:22:24;18.20;99.90
5834;DHT22;2943;48.012;10.968;2022-10-31T13:24:57;18.20;99.90
5834;DHT22;2943;48.012;10.968;2022-10-31T13:27:28;18.20;99.90
5834;DHT22;2943;48.012;10.968;2022-10-31T13:30:02;18.30;99.90
5834;DHT22;2943;48.012;10.968;2022-10-31T13:32:37;18.30;99.90
5834;DHT22;2943;48.012;10.968;2022-10-31T13:35:18;18.30;99.90
5834;DHT22;2943;48.012;10.968;2022-10-31T13:37:50;18.40;99.90
5834;DHT22;2943;48.012;10.968;2022-10-31T13:40:31;18.40;99.90
5834;DHT22;2943;48.012;10.968;2022-10-31T13:43:06;18.50;99.90
5834;DHT22;2943;48.012;10.968;2022-10-31T13:45:35;18.40;99.90
5834;DHT22;2943;48.012;10.968;2022-10-31T13:48:20;18.40;99.90
5834;DHT22;2943;48.012;10.968;2022-10-31T13:51:00;18.50;99.90
5834;DHT22;2943;48.012;10.968;2022-10-31T13:53:40;18.50;99.90
5834;DHT22;2943;48.012;10.968;2022-10-31T13:56:17;18.40;99.90
5834;DHT22;2943;48.012;10.968;2022-10-31T13:59:00;18.40;99.90
5834;DHT22;2943;48.012;10.968;2022-10-31T14:01:28;18.40;99.90
5834;DHT22;2943;48.012;10.968;2022-10-31T14:04:00;18.40;99.90
5834;DHT22;2943;48.012;10.968;2022-10-31T14:06:41;18.40;99.90
5834;DHT22;2943;48.012;10.968;2022-10-31T14:09:22;18.40;99.90
5834;DHT22;2943;48.012;10.968;2022-10-31T14:11:51;18.40;99.90
5834;DHT22;2943;48.012;10.968;2022-10-31T14:14:19;18.40;99.90
5834;DHT22;2943;48.012;10.968;2022-10-31T14:16:54;18.50;99.90
5834;DHT22;2943;48.012;10.968;2022-10-31T14:19:22;18.50;99.90
5834;DHT22;2943;48.012;10.968;2022-10-31T14:21:50;18.50;99.90
5834;DHT22;2943;48.012;10.968;2022-10-31T14:24:33;18.50;99.90
5834;DHT22;2943;48.012;10.968;2022-10-31T14:27:04;18.50;99.90
5834;DHT22;2943;48.012;10.968;2022-10-31T14:29:33;18.50;99.90
5834;DHT22;2943;48.012;10.968;2022-10-31T14:32:06;18.50;99.90
5834;DHT22;2943;48.012;10.968;2022-10-31T14:34:42;18.50;99.90
5834;DHT22;2943;48.012;10.968;2022-10-31T14:37:45;18.50;99.90
5834;DHT22;2943;48.012;10.968;2022-10-31T14:40:24;18.50;99.90
5834;DHT22;2943;48.012;10.968;2022-10-31T14:43:20;18.50;99.90
5834;DHT22;2943;48.012;10.968;2022-10-31T14:45:56;18.50;99.90
5834;DHT22;2943;48.012;10.968;2022-10-31T14:48:43;18.50;99.90
5834;DHT22;2943;48.012;10.968;2022-10-31T14:51:14;18.50;99.90
5834;DHT22;2943;48.012;10.968;2022-10-31T14:53:46;18.40;99.90
5834;DHT22;2943;48.012;10.968;2022-10-31T14:56:20;18.40;99.90
5834;DHT22;2943;48.012;10.968;2022-10-31T14:58:49;18.40;99.90
5834;DHT22;2943;48.012;10.968;2022-10-31T15:01:21;18.40;99.90
5834;DHT22;2943;48.012;10.968;2022-10-31T15:03:49;18.30;99.90
5834;DHT22;2943;48.012;10.968;2022-10-31T15:06:19;18.30;99.90
5834;DHT22;2943;48.012;10.968;2022-10-31T15:08:49;18.20;99.90
5834;DHT22;2943;48.012;10.968;2022-10-31T15:11:17;18.20;99.90
5834;DHT22;2943;48.012;10.968;2022-10-31T15:13:47;18.20;99.90
5834;DHT22;2943;48.012;10.968;2022-10-31T15:16:18;18.20;99.90
5834;DHT22;2943;48.012;10.968;2022-10-31T15:18:53;18.20;99.90
5834;DHT22;2943;48.012;10.968;2022-10-31T15:21:23;18.10;99.90
5834;DHT22;2943;48.012;10.968;2022-10-31T15:23:52;18.10;99.90
5834;DHT22;2943;48.012;10.968;2022-10-31T15:26:20;18.10;99.90
5834;DHT22;2943;48.012;10.968;2022-10-31T15:28:58;18.10;99.90
5834;DHT22;2943;48.012;10.968;2022-10-31T15:31:27;18.00;99.90
5834;DHT22;2943;48.012;10.968;2022-10-31T15:33:55;18.00;99.90
5834;DHT22;2943;48.012;10.968;2022-10-31T15:36:25;18.00;99.90
5834;DHT22;2943;48.012;10.968;2022-10-31T15:38:52;18.00;99.90
5834;DHT22;2943;48.012;10.968;2022-10-31T15:41:28;17.90;99.90
5834;DHT22;2943;48.012;10.968;2022-10-31T15:44:01;17.80;99.90
5834;DHT22;2943;48.012;10.968;2022-10-31T15:46:30;17.70;99.90
5834;DHT22;2943;48.012;10.968;2022-10-31T15:48:57;17.70;99.90
5834;DHT22;2943;48.012;10.968;2022-10-31T15:51:33;17.70;99.90
5834;DHT22;2943;48.012;10.968;2022-10-31T15:54:02;17.50;99.90
5834;DHT22;2943;48.012;10.968;2022-10-31T15:56:31;17.50;99.90
5834;DHT22;2943;48.012;10.968;2022-10-31T15:59:00;17.40;99.90
5834;DHT22;2943;48.012;10.968;2022-10-31T16:01:30;17.30;99.90
5834;DHT22;2943;48.012;10.968;2022-10-31T16:04:04;17.20;99.90
5834;DHT22;2943;48.012;10.968;2022-10-31T16:06:32;17.10;99.90
5834;DHT22;2943;48.012;10.968;2022-10-31T16:08:59;17.10;99.90
5834;DHT22;2943;48.012;10.968;2022-10-31T16:11:34;16.90;99.90
5834;DHT22;2943;48.012;10.968;2022-10-31T16:14:05;16.80;99.90
5834;DHT22;2943;48.012;10.968;2022-10-31T16:16:42;16.70;99.90
5834;DHT22;2943;48.012;10.968;2022-10-31T16:19:17;16.50;99.90